createdAt,value
2023-03-07T06:05:13.104Z,8.00
2023-03-07T06:10:18.023Z,7.90
2023-03-07T06:15:24.277Z,8.00
2023-03-07T06:20:30.173Z,8.00
2023-03-07T06:25:33.766Z,8.10
2023-03-07T06:30:37.400Z,8.10
2023-03-07T06:35:43.456Z,8.10
2023-03-07T06:40:55.654Z,8.10
2023-03-07T06:51:09.865Z,8.10
2023-03-07T06:56:14.016Z,8.10
2023-03-07T07:01:19.294Z,8.10
2023-03-07T07:06:24.723Z,8.20
2023-03-07T07:11:28.678Z,8.10
2023-03-07T07:21:41.942Z,8.10
2023-03-07T07:26:45.872Z,8.10
2023-03-07T07:31:50.651Z,8.10
2023-03-07T07:36:56.861Z,8.10
2023-03-07T07:42:00.675Z,8.10
2023-03-07T07:47:06.463Z,8.00
2023-03-07T07:52:11.448Z,8.00
2023-03-07T07:57:15.889Z,8.00
2023-03-07T08:02:20.109Z,8.00
2023-03-07T08:07:25.051Z,8.10
2023-03-07T08:12:28.666Z,8.10
2023-03-07T08:17:32.298Z,8.30
2023-03-07T08:22:37.587Z,8.40
2023-03-07T08:27:41.153Z,8.40
2023-03-07T08:32:44.783Z,8.50
2023-03-07T08:37:50.668Z,8.50
2023-03-07T08:42:55.208Z,8.60
2023-03-07T08:47:59.283Z,8.60
2023-03-07T08:53:04.262Z,8.70
2023-03-07T08:58:07.947Z,8.80
2023-03-07T09:03:11.706Z,8.90
2023-03-07T09:08:16.652Z,9.00
2023-03-07T09:13:20.282Z,9.20
2023-03-07T09:18:23.870Z,9.30
2023-03-07T09:23:29.015Z,9.50
2023-03-07T09:28:32.851Z,9.80
2023-03-07T09:33:36.619Z,9.90
2023-03-07T09:38:41.638Z,10.10
2023-03-07T09:43:52.663Z,10.00
2023-03-07T09:49:17.464Z,10.10
2023-03-07T09:54:24.451Z,10.30
2023-03-07T09:59:35.687Z,10.50
2023-03-07T10:04:48.025Z,10.90
2023-03-07T10:09:57.728Z,11.40
2023-03-07T10:15:17.435Z,11.90
2023-03-07T10:20:26.368Z,12.50
2023-03-07T10:25:35.150Z,12.70
2023-03-07T10:30:38.641Z,12.50
2023-03-07T10:35:44.494Z,12.50
2023-03-07T10:40:53.471Z,12.30
2023-03-07T10:46:01.786Z,12.00
2023-03-07T10:51:13.769Z,12.00
2023-03-07T10:56:20.096Z,11.90
2023-03-07T11:01:25.440Z,12.10
2023-03-07T11:06:40.497Z,12.30
2023-03-07T11:11:49.643Z,12.40
2023-03-07T11:16:55.989Z,12.60
2023-03-07T11:22:00.741Z,12.40
2023-03-07T11:27:06.670Z,12.40
2023-03-07T11:32:17.632Z,12.40
2023-03-07T11:37:29.800Z,12.50
2023-03-07T11:42:39.484Z,12.60
2023-03-07T11:47:49.891Z,12.40
2023-03-07T11:53:25.166Z,12.20
2023-03-07T11:58:53.145Z,12.10
2023-03-07T12:04:32.907Z,12.00
2023-03-07T12:09:46.294Z,12.10
2023-03-07T12:15:00.664Z,12.10
2023-03-07T12:20:26.065Z,12.00
2023-03-07T12:25:34.949Z,12.00
2023-03-07T12:30:53.880Z,11.90
2023-03-07T12:36:02.677Z,12.00
2023-03-07T12:41:20.807Z,11.90
2023-03-07T12:46:37.389Z,11.80
2023-03-07T12:51:45.770Z,11.80
2023-03-07T12:56:54.588Z,11.80
2023-03-07T13:02:05.291Z,11.80
2023-03-07T13:07:12.948Z,11.80
2023-03-07T13:12:33.373Z,11.80
2023-03-07T13:17:58.839Z,11.80
2023-03-07T13:23:14.734Z,11.80
2023-03-07T13:28:52.416Z,11.90
2023-03-07T13:33:57.923Z,11.90
2023-03-07T13:39:01.611Z,12.00
2023-03-07T13:44:05.260Z,12.10
2023-03-07T13:49:10.155Z,12.10
2023-03-07T13:54:15.447Z,12.00
2023-03-07T13:59:27.678Z,12.00
2023-03-07T14:04:40.979Z,11.90
2023-03-07T14:09:48.058Z,11.80
2023-03-07T14:15:12.461Z,11.70
2023-03-07T14:20:24.064Z,11.70
2023-03-07T14:25:28.505Z,11.60
2023-03-07T14:30:34.480Z,11.40
2023-03-07T14:35:42.078Z,11.40
2023-03-07T14:41:03.705Z,11.50
2023-03-07T14:46:13.524Z,11.50
2023-03-07T14:51:22.709Z,11.70
2023-03-07T14:56:29.344Z,11.80
2023-03-07T15:01:35.520Z,11.80
2023-03-07T15:06:45.610Z,11.80
2023-03-07T15:11:54.737Z,11.80
2023-03-07T15:17:03.196Z,11.80
2023-03-07T15:22:14.765Z,11.70
2023-03-07T15:27:23.221Z,11.70
2023-03-07T15:32:33.160Z,11.80
2023-03-07T15:37:53.729Z,11.80
2023-03-07T15:42:59.003Z,11.90
2023-03-07T15:48:10.657Z,12.00
2023-03-07T15:53:24.780Z,12.00
2023-03-07T15:58:29.615Z,12.00
2023-03-07T16:03:33.890Z,12.20
2023-03-07T16:08:38.793Z,12.20
2023-03-07T16:13:44.935Z,12.10
2023-03-07T16:23:54.000Z,12.00
2023-03-07T16:28:57.562Z,12.00
2023-03-07T16:34:01.440Z,12.00
2023-03-07T16:39:06.448Z,11.90
2023-03-07T16:44:17.023Z,11.90
2023-03-07T16:49:21.526Z,11.80
2023-03-07T16:54:26.391Z,11.70
2023-03-07T16:59:34.677Z,11.60
2023-03-07T17:04:38.202Z,11.50
2023-03-07T17:09:43.060Z,11.50
2023-03-07T17:14:46.783Z,11.40
2023-03-07T17:19:50.783Z,11.40
2023-03-07T17:24:55.665Z,11.40
2023-03-07T17:29:59.424Z,11.30
2023-03-07T17:40:10.330Z,11.30
2023-03-07T17:45:14.994Z,11.30
2023-03-07T17:50:19.452Z,11.20
2023-03-07T17:55:26.138Z,11.20
2023-03-07T18:00:29.860Z,11.10
2023-03-07T18:05:33.500Z,11.10
2023-03-07T18:10:38.427Z,11.00
2023-03-07T18:15:45.652Z,11.00
2023-03-07T18:20:58.139Z,10.90
2023-03-07T18:26:04.845Z,10.90
2023-03-07T18:31:10.775Z,10.90
2023-03-07T18:36:16.592Z,10.90
2023-03-07T18:41:23.773Z,10.90
2023-03-07T18:46:30.586Z,10.80
2023-03-07T18:51:34.170Z,10.80
2023-03-07T18:56:39.283Z,10.80
2023-03-07T19:01:43.168Z,10.70
2023-03-07T19:06:48.241Z,10.80
2023-03-07T19:11:53.789Z,10.70
2023-03-07T19:16:57.320Z,10.70
2023-03-07T19:22:00.880Z,10.70
2023-03-07T19:27:05.835Z,10.60
2023-03-07T19:32:09.640Z,10.60
2023-03-07T19:42:18.601Z,10.50
2023-03-07T19:52:26.844Z,10.40
2023-03-07T19:57:31.881Z,10.40
2023-03-07T20:12:44.943Z,10.30
2023-03-07T20:22:55.426Z,10.20
2023-03-07T20:28:00.379Z,10.30
2023-03-07T20:43:13.587Z,10.30
2023-03-07T20:53:21.036Z,10.30
2023-03-07T20:58:29.722Z,10.30
2023-03-07T21:03:33.452Z,10.30
2023-03-07T21:08:38.750Z,10.40
2023-03-07T21:13:45.287Z,10.40
2023-03-07T21:28:58.818Z,10.50
2023-03-07T21:34:04.231Z,10.50
2023-03-07T21:39:10.011Z,10.40
2023-03-07T21:44:15.458Z,10.50
2023-03-07T21:59:33.507Z,10.50
2023-03-07T22:14:47.912Z,10.50
2023-03-07T22:24:55.389Z,10.90
2023-03-07T22:30:00.321Z,10.70
2023-03-07T22:40:09.595Z,10.60
2023-03-07T22:45:14.740Z,10.60
2023-03-07T22:55:22.463Z,10.70
2023-03-07T23:00:27.737Z,10.70
2023-03-07T23:05:32.586Z,10.80
2023-03-07T23:15:42.659Z,10.90
